Columbia Falls, Montana
Current Conditions -  °F | °C
As of 1:55 AM on Saturday 22 Nov 2014 (Local Time) from KGPI Reporting Station
Overcast Overcast  
Wind Chill: 32°   Ceiling: 1600
Heat Index: 37°   Visibility: 10mi
Dew Point: 35°   Wind: 6mph
Humidity: 93%   Direction: 270°W
Pressure: 29.37"   Gusts: NA
Location:  48.37°N, 114.18°W
Report Text: KGPI 220855Z 27005KT 10SM BKN016 OVC023 03/02 A2937 RMK AO2 RAE53 SLP962 P0004 60015 T00280017 56036
Loading
Personal Weather Stations






























Interactive Weather Map New forecast layout! Learn more

10-Day Weather Forecast

Advertisements
Track Severe Weather on mobile